sensor_id;sensor_type;location;lat;lon;timestamp;pressure;altitude;pressure_sealevel;temperature
68911;BMP180;55953;51.650;-0.522;2022-12-07T00:01:46;101475.20;;;4.00
68911;BMP180;55953;51.650;-0.522;2022-12-07T00:04:17;101471.00;;;3.94
68911;BMP180;55953;51.650;-0.522;2022-12-07T00:06:50;101469.00;;;3.94
68911;BMP180;55953;51.650;-0.522;2022-12-07T00:09:19;101467.80;;;3.90
68911;BMP180;55953;51.650;-0.522;2022-12-07T00:11:51;101470.40;;;3.90
68911;BMP180;55953;51.650;-0.522;2022-12-07T00:14:20;101461.00;;;3.90
68911;BMP180;55953;51.650;-0.522;2022-12-07T00:16:50;101466.20;;;3.90
68911;BMP180;55953;51.650;-0.522;2022-12-07T00:19:19;101467.00;;;3.80
68911;BMP180;55953;51.650;-0.522;2022-12-07T00:21:47;101462.60;;;3.80
68911;BMP180;55953;51.650;-0.522;2022-12-07T00:24:15;101462.00;;;3.70
68911;BMP180;55953;51.650;-0.522;2022-12-07T00:26:43;101469.80;;;3.70
68911;BMP180;55953;51.650;-0.522;2022-12-07T00:29:21;101466.80;;;3.60
68911;BMP180;55953;51.650;-0.522;2022-12-07T00:31:49;101463.20;;;3.60
68911;BMP180;55953;51.650;-0.522;2022-12-07T00:34:20;101466.60;;;3.60
68911;BMP180;55953;51.650;-0.522;2022-12-07T00:36:49;101470.40;;;3.60
68911;BMP180;55953;51.650;-0.522;2022-12-07T00:39:17;101475.20;;;3.50
68911;BMP180;55953;51.650;-0.522;2022-12-07T00:41:45;101475.00;;;3.50
68911;BMP180;55953;51.650;-0.522;2022-12-07T00:44:13;101476.80;;;3.50
68911;BMP180;55953;51.650;-0.522;2022-12-07T00:46:41;101470.40;;;3.50
68911;BMP180;55953;51.650;-0.522;2022-12-07T00:49:08;101477.60;;;3.42
68911;BMP180;55953;51.650;-0.522;2022-12-07T00:51:36;101474.40;;;3.40
68911;BMP180;55953;51.650;-0.522;2022-12-07T00:54:04;101473.40;;;3.40
68911;BMP180;55953;51.650;-0.522;2022-12-07T00:56:32;101468.40;;;3.32
68911;BMP180;55953;51.650;-0.522;2022-12-07T00:59:03;101467.60;;;3.30
68911;BMP180;55953;51.650;-0.522;2022-12-07T01:01:35;101462.80;;;3.30
68911;BMP180;55953;51.650;-0.522;2022-12-07T01:04:04;101458.40;;;3.30
68911;BMP180;55953;51.650;-0.522;2022-12-07T01:06:32;101457.80;;;3.28
68911;BMP180;55953;51.650;-0.522;2022-12-07T01:09:00;101462.80;;;3.22
68911;BMP180;55953;51.650;-0.522;2022-12-07T01:11:29;101461.00;;;3.20
68911;BMP180;55953;51.650;-0.522;2022-12-07T01:13:59;101457.20;;;3.20
68911;BMP180;55953;51.650;-0.522;2022-12-07T01:16:31;101456.60;;;3.20
68911;BMP180;55953;51.650;-0.522;2022-12-07T01:19:01;101453.00;;;3.20
68911;BMP180;55953;51.650;-0.522;2022-12-07T01:21:32;101457.40;;;3.20
68911;BMP180;55953;51.650;-0.522;2022-12-07T01:24:09;101451.80;;;3.20
68911;BMP180;55953;51.650;-0.522;2022-12-07T01:26:37;101447.40;;;3.20
68911;BMP180;55953;51.650;-0.522;2022-12-07T01:29:05;101445.60;;;3.20
68911;BMP180;55953;51.650;-0.522;2022-12-07T01:31:33;101445.20;;;3.20
68911;BMP180;55953;51.650;-0.522;2022-12-07T01:34:01;101448.20;;;3.20
68911;BMP180;55953;51.650;-0.522;2022-12-07T01:36:32;101452.00;;;3.20
68911;BMP180;55953;51.650;-0.522;2022-12-07T01:39:05;101455.60;;;3.20
68911;BMP180;55953;51.650;-0.522;2022-12-07T01:41:37;101455.00;;;3.20
68911;BMP180;55953;51.650;-0.522;2022-12-07T01:44:29;101456.00;;;3.20
68911;BMP180;55953;51.650;-0.522;2022-12-07T01:47:03;101452.20;;;3.20
68911;BMP180;55953;51.650;-0.522;2022-12-07T01:49:40;101453.40;;;3.12
68911;BMP180;55953;51.650;-0.522;2022-12-07T01:52:27;101454.60;;;3.10
68911;BMP180;55953;51.650;-0.522;2022-12-07T01:55:01;101455.00;;;3.14
68911;BMP180;55953;51.650;-0.522;2022-12-07T01:57:33;101454.20;;;3.20
68911;BMP180;55953;51.650;-0.522;2022-12-07T02:00:06;101456.00;;;3.20
68911;BMP180;55953;51.650;-0.522;2022-12-07T02:02:55;101456.80;;;3.20
68911;BMP180;55953;51.650;-0.522;2022-12-07T02:05:26;101455.20;;;3.24
68911;BMP180;55953;51.650;-0.522;2022-12-07T02:07:56;101460.00;;;3.30
68911;BMP180;55953;51.650;-0.522;2022-12-07T02:10:29;101459.00;;;3.34
68911;BMP180;55953;51.650;-0.522;2022-12-07T02:13:04;101454.20;;;3.40
68911;BMP180;55953;51.650;-0.522;2022-12-07T02:16:06;101455.40;;;3.50
68911;BMP180;55953;51.650;-0.522;2022-12-07T02:21:42;101460.00;;;3.60
68911;BMP180;55953;51.650;-0.522;2022-12-07T02:27:38;101459.80;;;3.70
68911;BMP180;55953;51.650;-0.522;2022-12-07T02:32:55;101460.00;;;3.78
68911;BMP180;55953;51.650;-0.522;2022-12-07T02:35:39;101454.40;;;3.80
68911;BMP180;55953;51.650;-0.522;2022-12-07T02:38:33;101448.80;;;3.80
68911;BMP180;55953;51.650;-0.522;2022-12-07T02:41:12;101445.40;;;3.80
68911;BMP180;55953;51.650;-0.522;2022-12-07T02:44:02;101441.60;;;3.80
68911;BMP180;55953;51.650;-0.522;2022-12-07T02:46:41;101444.20;;;3.80
68911;BMP180;55953;51.650;-0.522;2022-12-07T02:49:11;101444.80;;;3.80
68911;BMP180;55953;51.650;-0.522;2022-12-07T02:51:41;101447.80;;;3.80
68911;BMP180;55953;51.650;-0.522;2022-12-07T02:54:18;101441.80;;;3.80
68911;BMP180;55953;51.650;-0.522;2022-12-07T02:56:58;101439.80;;;3.80
68911;BMP180;55953;51.650;-0.522;2022-12-07T03:05:32;101433.40;;;3.70
68911;BMP180;55953;51.650;-0.522;2022-12-07T03:11:25;101426.40;;;3.70
68911;BMP180;55953;51.650;-0.522;2022-12-07T03:14:21;101424.60;;;3.70
68911;BMP180;55953;51.650;-0.522;2022-12-07T03:17:02;101428.60;;;3.70
68911;BMP180;55953;51.650;-0.522;2022-12-07T03:19:35;101429.00;;;3.70
68911;BMP180;55953;51.650;-0.522;2022-12-07T03:22:10;101422.40;;;3.70
68911;BMP180;55953;51.650;-0.522;2022-12-07T03:24:47;101420.40;;;3.60
68911;BMP180;55953;51.650;-0.522;2022-12-07T03:27:34;101420.60;;;3.60
68911;BMP180;55953;51.650;-0.522;2022-12-07T03:30:13;101418.20;;;3.60
68911;BMP180;55953;51.650;-0.522;2022-12-07T03:33:10;101418.40;;;3.60
68911;BMP180;55953;51.650;-0.522;2022-12-07T03:35:52;101412.80;;;3.58
68911;BMP180;55953;51.650;-0.522;2022-12-07T03:38:38;101412.20;;;3.58
68911;BMP180;55953;51.650;-0.522;2022-12-07T03:41:25;101412.20;;;3.60
68911;BMP180;55953;51.650;-0.522;2022-12-07T03:43:54;101409.40;;;3.60
68911;BMP180;55953;51.650;-0.522;2022-12-07T03:46:37;101414.60;;;3.62
68911;BMP180;55953;51.650;-0.522;2022-12-07T03:49:37;101417.00;;;3.70
68911;BMP180;55953;51.650;-0.522;2022-12-07T03:52:33;101411.00;;;3.70
68911;BMP180;55953;51.650;-0.522;2022-12-07T03:55:11;101408.80;;;3.70
68911;BMP180;55953;51.650;-0.522;2022-12-07T03:57:44;101407.40;;;3.70
68911;BMP180;55953;51.650;-0.522;2022-12-07T04:00:14;101408.40;;;3.80
68911;BMP180;55953;51.650;-0.522;2022-12-07T04:02:42;101403.00;;;3.80
68911;BMP180;55953;51.650;-0.522;2022-12-07T04:05:11;101395.40;;;3.80
68911;BMP180;55953;51.650;-0.522;2022-12-07T04:07:40;101397.00;;;3.80
68911;BMP180;55953;51.650;-0.522;2022-12-07T04:10:10;101399.60;;;3.80
68911;BMP180;55953;51.650;-0.522;2022-12-07T04:12:38;101405.80;;;3.80
68911;BMP180;55953;51.650;-0.522;2022-12-07T04:15:07;101409.00;;;3.74
68911;BMP180;55953;51.650;-0.522;2022-12-07T04:17:35;101407.00;;;3.74
68911;BMP180;55953;51.650;-0.522;2022-12-07T04:20:04;101414.20;;;3.70
68911;BMP180;55953;51.650;-0.522;2022-12-07T04:22:32;101408.80;;;3.70
68911;BMP180;55953;51.650;-0.522;2022-12-07T04:25:00;101404.80;;;3.60
68911;BMP180;55953;51.650;-0.522;2022-12-07T04:27:28;101398.80;;;3.60
68911;BMP180;55953;51.650;-0.522;2022-12-07T04:29:55;101396.40;;;3.50
68911;BMP180;55953;51.650;-0.522;2022-12-07T04:32:24;101394.00;;;3.48
68911;BMP180;55953;51.650;-0.522;2022-12-07T04:34:51;101398.40;;;3.40
68911;BMP180;55953;51.650;-0.522;2022-12-07T04:37:23;101396.20;;;3.32
68911;BMP180;55953;51.650;-0.522;2022-12-07T04:39:51;101392.20;;;3.30
68911;BMP180;55953;51.650;-0.522;2022-12-07T04:42:19;101394.80;;;3.28
68911;BMP180;55953;51.650;-0.522;2022-12-07T04:44:47;101393.80;;;3.20
68911;BMP180;55953;51.650;-0.522;2022-12-07T04:47:15;101398.80;;;3.14
68911;BMP180;55953;51.650;-0.522;2022-12-07T04:49:43;101400.00;;;3.10
68911;BMP180;55953;51.650;-0.522;2022-12-07T04:52:10;101407.80;;;3.00
68911;BMP180;55953;51.650;-0.522;2022-12-07T04:54:38;101395.00;;;3.00
68911;BMP180;55953;51.650;-0.522;2022-12-07T04:57:06;101394.60;;;2.90
68911;BMP180;55953;51.650;-0.522;2022-12-07T04:59:33;101391.60;;;2.90
68911;BMP180;55953;51.650;-0.522;2022-12-07T05:02:01;101388.40;;;2.80
68911;BMP180;55953;51.650;-0.522;2022-12-07T05:04:29;101388.60;;;2.80
68911;BMP180;55953;51.650;-0.522;2022-12-07T05:06:57;101390.60;;;2.74
68911;BMP180;55953;51.650;-0.522;2022-12-07T05:09:25;101387.00;;;2.70
68911;BMP180;55953;51.650;-0.522;2022-12-07T05:11:52;101388.40;;;2.70
68911;BMP180;55953;51.650;-0.522;2022-12-07T05:14:21;101388.20;;;2.62
68911;BMP180;55953;51.650;-0.522;2022-12-07T05:16:50;101385.40;;;2.60
68911;BMP180;55953;51.650;-0.522;2022-12-07T05:19:19;101396.80;;;2.60
68911;BMP180;55953;51.650;-0.522;2022-12-07T05:21:47;101381.20;;;2.50
68911;BMP180;55953;51.650;-0.522;2022-12-07T05:24:16;101380.20;;;2.50
68911;BMP180;55953;51.650;-0.522;2022-12-07T05:26:45;101384.40;;;2.50
68911;BMP180;55953;51.650;-0.522;2022-12-07T05:29:15;101380.60;;;2.50
68911;BMP180;55953;51.650;-0.522;2022-12-07T05:31:44;101382.20;;;2.50
68911;BMP180;55953;51.650;-0.522;2022-12-07T05:34:12;101382.00;;;2.50
68911;BMP180;55953;51.650;-0.522;2022-12-07T05:36:39;101378.20;;;2.50
68911;BMP180;55953;51.650;-0.522;2022-12-07T05:39:09;101374.20;;;2.50
68911;BMP180;55953;51.650;-0.522;2022-12-07T05:41:37;101375.00;;;2.50
68911;BMP180;55953;51.650;-0.522;2022-12-07T05:44:24;101379.20;;;2.48
68911;BMP180;55953;51.650;-0.522;2022-12-07T05:46:52;101367.80;;;2.42
68911;BMP180;55953;51.650;-0.522;2022-12-07T05:49:19;101373.80;;;2.48
68911;BMP180;55953;51.650;-0.522;2022-12-07T05:51:47;101371.60;;;2.42
68911;BMP180;55953;51.650;-0.522;2022-12-07T05:54:15;101370.60;;;2.50
68911;BMP180;55953;51.650;-0.522;2022-12-07T05:56:43;101379.20;;;2.50
68911;BMP180;55953;51.650;-0.522;2022-12-07T05:59:10;101371.00;;;2.50
68911;BMP180;55953;51.650;-0.522;2022-12-07T06:01:59;101363.20;;;2.50
68911;BMP180;55953;51.650;-0.522;2022-12-07T06:04:31;101361.00;;;2.58
68911;BMP180;55953;51.650;-0.522;2022-12-07T06:07:00;101360.60;;;2.58
68911;BMP180;55953;51.650;-0.522;2022-12-07T06:09:29;101350.80;;;2.50
68911;BMP180;55953;51.650;-0.522;2022-12-07T06:11:58;101356.00;;;2.50
68911;BMP180;55953;51.650;-0.522;2022-12-07T06:14:45;101362.40;;;2.50
68911;BMP180;55953;51.650;-0.522;2022-12-07T06:17:14;101359.80;;;2.50
68911;BMP180;55953;51.650;-0.522;2022-12-07T06:19:42;101365.00;;;2.48
68911;BMP180;55953;51.650;-0.522;2022-12-07T06:22:10;101363.80;;;2.46
68911;BMP180;55953;51.650;-0.522;2022-12-07T06:24:40;101364.40;;;2.48
68911;BMP180;55953;51.650;-0.522;2022-12-07T06:27:09;101363.20;;;2.40
68911;BMP180;55953;51.650;-0.522;2022-12-07T06:29:37;101362.40;;;2.46
68911;BMP180;55953;51.650;-0.522;2022-12-07T06:32:05;101370.60;;;2.40
68911;BMP180;55953;51.650;-0.522;2022-12-07T06:34:33;101368.20;;;2.40
68911;BMP180;55953;51.650;-0.522;2022-12-07T06:37:01;101368.80;;;2.40
68911;BMP180;55953;51.650;-0.522;2022-12-07T06:39:30;101380.20;;;2.40
68911;BMP180;55953;51.650;-0.522;2022-12-07T06:41:59;101384.20;;;2.38
68911;BMP180;55953;51.650;-0.522;2022-12-07T06:44:26;101383.80;;;2.30
68911;BMP180;55953;51.650;-0.522;2022-12-07T06:46:54;101388.60;;;2.28
68911;BMP180;55953;51.650;-0.522;2022-12-07T06:49:42;101379.60;;;2.20
68911;BMP180;55953;51.650;-0.522;2022-12-07T06:52:10;101385.00;;;2.20
68911;BMP180;55953;51.650;-0.522;2022-12-07T06:54:37;101380.40;;;2.20
68911;BMP180;55953;51.650;-0.522;2022-12-07T06:57:05;101385.40;;;2.18
68911;BMP180;55953;51.650;-0.522;2022-12-07T06:59:33;101383.40;;;2.10
68911;BMP180;55953;51.650;-0.522;2022-12-07T07:02:01;101385.40;;;2.10
68911;BMP180;55953;51.650;-0.522;2022-12-07T07:04:29;101383.60;;;2.04
68911;BMP180;55953;51.650;-0.522;2022-12-07T07:06:56;101382.40;;;2.00
68911;BMP180;55953;51.650;-0.522;2022-12-07T07:09:27;101376.80;;;2.00
68911;BMP180;55953;51.650;-0.522;2022-12-07T07:11:55;101380.20;;;2.00
68911;BMP180;55953;51.650;-0.522;2022-12-07T07:14:22;101389.60;;;2.00
68911;BMP180;55953;51.650;-0.522;2022-12-07T07:16:50;101385.60;;;2.00
68911;BMP180;55953;51.650;-0.522;2022-12-07T07:19:18;101388.00;;;2.00
68911;BMP180;55953;51.650;-0.522;2022-12-07T07:21:46;101383.40;;;2.00
68911;BMP180;55953;51.650;-0.522;2022-12-07T07:24:14;101383.80;;;1.90
68911;BMP180;55953;51.650;-0.522;2022-12-07T07:26:41;101387.60;;;1.90
68911;BMP180;55953;51.650;-0.522;2022-12-07T07:29:09;101386.00;;;1.90
68911;BMP180;55953;51.650;-0.522;2022-12-07T07:31:37;101387.60;;;1.90
68911;BMP180;55953;51.650;-0.522;2022-12-07T07:34:05;101384.80;;;1.82
68911;BMP180;55953;51.650;-0.522;2022-12-07T07:36:33;101379.60;;;1.80
68911;BMP180;55953;51.650;-0.522;2022-12-07T07:39:00;101384.40;;;1.80
68911;BMP180;55953;51.650;-0.522;2022-12-07T07:41:28;101384.80;;;1.80
68911;BMP180;55953;51.650;-0.522;2022-12-07T07:43:56;101387.80;;;1.80
68911;BMP180;55953;51.650;-0.522;2022-12-07T07:46:23;101386.80;;;1.80
68911;BMP180;55953;51.650;-0.522;2022-12-07T07:48:51;101390.40;;;1.70
68911;BMP180;55953;51.650;-0.522;2022-12-07T07:51:19;101393.80;;;1.70
68911;BMP180;55953;51.650;-0.522;2022-12-07T07:53:47;101390.20;;;1.70
68911;BMP180;55953;51.650;-0.522;2022-12-07T07:56:14;101392.00;;;1.60
68911;BMP180;55953;51.650;-0.522;2022-12-07T07:58:42;101395.20;;;1.60
68911;BMP180;55953;51.650;-0.522;2022-12-07T08:01:11;101397.80;;;1.60
68911;BMP180;55953;51.650;-0.522;2022-12-07T08:03:39;101398.00;;;1.60
68911;BMP180;55953;51.650;-0.522;2022-12-07T08:06:07;101402.00;;;1.60
68911;BMP180;55953;51.650;-0.522;2022-12-07T08:08:34;101401.60;;;1.70
68911;BMP180;55953;51.650;-0.522;2022-12-07T08:11:07;101404.40;;;1.70
68911;BMP180;55953;51.650;-0.522;2022-12-07T08:13:37;101402.80;;;1.70
68911;BMP180;55953;51.650;-0.522;2022-12-07T08:16:08;101401.40;;;1.80
68911;BMP180;55953;51.650;-0.522;2022-12-07T08:18:39;101399.60;;;1.80
68911;BMP180;55953;51.650;-0.522;2022-12-07T08:21:12;101397.60;;;1.80
68911;BMP180;55953;51.650;-0.522;2022-12-07T08:23:41;101404.80;;;1.72
68911;BMP180;55953;51.650;-0.522;2022-12-07T08:26:13;101404.40;;;1.70
68911;BMP180;55953;51.650;-0.522;2022-12-07T08:28:42;101404.40;;;1.70
68911;BMP180;55953;51.650;-0.522;2022-12-07T08:31:15;101402.40;;;1.70
68911;BMP180;55953;51.650;-0.522;2022-12-07T08:33:47;101395.00;;;1.80
68911;BMP180;55953;51.650;-0.522;2022-12-07T08:36:15;101399.80;;;1.80
68911;BMP180;55953;51.650;-0.522;2022-12-07T08:38:43;101399.60;;;1.80
68911;BMP180;55953;51.650;-0.522;2022-12-07T08:41:32;101392.20;;;1.80
68911;BMP180;55953;51.650;-0.522;2022-12-07T08:43:59;101387.20;;;1.80
68911;BMP180;55953;51.650;-0.522;2022-12-07T08:46:52;101390.80;;;1.82
68911;BMP180;55953;51.650;-0.522;2022-12-07T08:49:27;101389.40;;;1.90
68911;BMP180;55953;51.650;-0.522;2022-12-07T08:51:58;101395.00;;;2.00
68911;BMP180;55953;51.650;-0.522;2022-12-07T08:54:28;101389.20;;;1.98
68911;BMP180;55953;51.650;-0.522;2022-12-07T08:56:56;101388.20;;;2.00
68911;BMP180;55953;51.650;-0.522;2022-12-07T08:59:28;101390.80;;;2.00
68911;BMP180;55953;51.650;-0.522;2022-12-07T09:01:56;101389.60;;;2.00
68911;BMP180;55953;51.650;-0.522;2022-12-07T09:04:24;101385.80;;;2.00
68911;BMP180;55953;51.650;-0.522;2022-12-07T09:06:54;101383.80;;;2.04
68911;BMP180;55953;51.650;-0.522;2022-12-07T09:09:22;101381.40;;;2.10
68911;BMP180;55953;51.650;-0.522;2022-12-07T09:11:49;101370.40;;;2.10
68911;BMP180;55953;51.650;-0.522;2022-12-07T09:14:17;101369.20;;;2.10
68911;BMP180;55953;51.650;-0.522;2022-12-07T09:16:46;101368.60;;;2.20
68911;BMP180;55953;51.650;-0.522;2022-12-07T09:19:14;101368.00;;;2.16
68911;BMP180;55953;51.650;-0.522;2022-12-07T09:21:42;101368.80;;;2.20
68911;BMP180;55953;51.650;-0.522;2022-12-07T09:24:12;101366.40;;;2.20
68911;BMP180;55953;51.650;-0.522;2022-12-07T09:26:40;101366.20;;;2.28
68911;BMP180;55953;51.650;-0.522;2022-12-07T09:29:08;101362.60;;;2.30
68911;BMP180;55953;51.650;-0.522;2022-12-07T09:31:37;101364.20;;;2.30
68911;BMP180;55953;51.650;-0.522;2022-12-07T09:34:05;101365.40;;;2.40
68911;BMP180;55953;51.650;-0.522;2022-12-07T09:36:34;101363.20;;;2.40
68911;BMP180;55953;51.650;-0.522;2022-12-07T09:39:03;101369.20;;;2.50
68911;BMP180;55953;51.650;-0.522;2022-12-07T09:41:32;101368.80;;;2.50
68911;BMP180;55953;51.650;-0.522;2022-12-07T09:44:10;101368.00;;;2.60
68911;BMP180;55953;51.650;-0.522;2022-12-07T09:46:42;101371.20;;;2.60
68911;BMP180;55953;51.650;-0.522;2022-12-07T09:49:16;101372.00;;;2.70
68911;BMP180;55953;51.650;-0.522;2022-12-07T09:51:45;101375.80;;;2.70
68911;BMP180;55953;51.650;-0.522;2022-12-07T09:54:16;101372.00;;;2.70
68911;BMP180;55953;51.650;-0.522;2022-12-07T09:56:44;101371.00;;;2.80
68911;BMP180;55953;51.650;-0.522;2022-12-07T09:59:17;101368.60;;;2.80
68911;BMP180;55953;51.650;-0.522;2022-12-07T10:01:49;101368.80;;;2.90
68911;BMP180;55953;51.650;-0.522;2022-12-07T10:04:22;101368.60;;;2.98
68911;BMP180;55953;51.650;-0.522;2022-12-07T10:06:52;101372.20;;;3.00
68911;BMP180;55953;51.650;-0.522;2022-12-07T10:09:21;101369.80;;;3.10
68911;BMP180;55953;51.650;-0.522;2022-12-07T10:14:32;101349.00;;;3.20
68911;BMP180;55953;51.650;-0.522;2022-12-07T10:17:39;101352.60;;;3.20
68911;BMP180;55953;51.650;-0.522;2022-12-07T10:20:25;101344.60;;;3.30
68911;BMP180;55953;51.650;-0.522;2022-12-07T10:23:05;101343.00;;;3.30
68911;BMP180;55953;51.650;-0.522;2022-12-07T10:25:36;101340.20;;;3.30
68911;BMP180;55953;51.650;-0.522;2022-12-07T10:33:37;101340.00;;;3.50
68911;BMP180;55953;51.650;-0.522;2022-12-07T10:36:33;101338.80;;;3.50
68911;BMP180;55953;51.650;-0.522;2022-12-07T10:39:16;101341.80;;;3.50
68911;BMP180;55953;51.650;-0.522;2022-12-07T10:42:01;101332.60;;;3.60
68911;BMP180;55953;51.650;-0.522;2022-12-07T10:44:34;101328.00;;;3.60
68911;BMP180;55953;51.650;-0.522;2022-12-07T10:47:38;101321.40;;;3.60
68911;BMP180;55953;51.650;-0.522;2022-12-07T10:53:14;101308.40;;;3.70
68911;BMP180;55953;51.650;-0.522;2022-12-07T11:01:34;101310.20;;;3.80
68911;BMP180;55953;51.650;-0.522;2022-12-07T11:04:35;101304.80;;;3.70
68911;BMP180;55953;51.650;-0.522;2022-12-07T11:07:38;101302.00;;;3.72
68911;BMP180;55953;51.650;-0.522;2022-12-07T11:10:19;101298.20;;;3.80
68911;BMP180;55953;51.650;-0.522;2022-12-07T11:16:48;101291.40;;;3.80
68911;BMP180;55953;51.650;-0.522;2022-12-07T11:25:34;101286.80;;;3.90
68911;BMP180;55953;51.650;-0.522;2022-12-07T11:31:13;101282.00;;;4.00
68911;BMP180;55953;51.650;-0.522;2022-12-07T11:33:53;101279.80;;;3.98
68911;BMP180;55953;51.650;-0.522;2022-12-07T11:36:37;101275.40;;;4.00
68911;BMP180;55953;51.650;-0.522;2022-12-07T11:41:56;101276.40;;;4.10
68911;BMP180;55953;51.650;-0.522;2022-12-07T11:47:42;101264.20;;;4.14
68911;BMP180;55953;51.650;-0.522;2022-12-07T11:50:58;101262.00;;;4.20
68911;BMP180;55953;51.650;-0.522;2022-12-07T11:56:17;101247.80;;;4.20
68911;BMP180;55953;51.650;-0.522;2022-12-07T11:58:56;101246.40;;;4.30
68911;BMP180;55953;51.650;-0.522;2022-12-07T12:06:41;101230.20;;;4.36
68911;BMP180;55953;51.650;-0.522;2022-12-07T12:09:43;101229.60;;;4.40
68911;BMP180;55953;51.650;-0.522;2022-12-07T12:16:54;101218.20;;;4.60
68911;BMP180;55953;51.650;-0.522;2022-12-07T12:19:58;101212.00;;;4.60
68911;BMP180;55953;51.650;-0.522;2022-12-07T12:22:45;101205.80;;;4.70
68911;BMP180;55953;51.650;-0.522;2022-12-07T12:25:25;101201.80;;;4.70
68911;BMP180;55953;51.650;-0.522;2022-12-07T12:27:58;101204.60;;;4.74
68911;BMP180;55953;51.650;-0.522;2022-12-07T12:30:36;101208.00;;;4.80
68911;BMP180;55953;51.650;-0.522;2022-12-07T12:33:31;101209.40;;;4.80
68911;BMP180;55953;51.650;-0.522;2022-12-07T12:47:03;101192.00;;;4.80
68911;BMP180;55953;51.650;-0.522;2022-12-07T12:49:41;101188.20;;;4.90
68911;BMP180;55953;51.650;-0.522;2022-12-07T12:55:12;101172.60;;;5.00
68911;BMP180;55953;51.650;-0.522;2022-12-07T12:57:40;101171.60;;;5.00
68911;BMP180;55953;51.650;-0.522;2022-12-07T13:00:23;101175.00;;;5.00
68911;BMP180;55953;51.650;-0.522;2022-12-07T13:02:55;101170.80;;;5.10
68911;BMP180;55953;51.650;-0.522;2022-12-07T13:05:30;101164.40;;;5.20
68911;BMP180;55953;51.650;-0.522;2022-12-07T13:08:02;101165.00;;;5.28
68911;BMP180;55953;51.650;-0.522;2022-12-07T13:10:45;101160.60;;;5.30
68911;BMP180;55953;51.650;-0.522;2022-12-07T13:15:42;101148.20;;;5.40
68911;BMP180;55953;51.650;-0.522;2022-12-07T13:34:40;101138.00;;;5.48
68911;BMP180;55953;51.650;-0.522;2022-12-07T13:37:23;101136.60;;;5.50
68911;BMP180;55953;51.650;-0.522;2022-12-07T13:40:19;101135.40;;;5.58
68911;BMP180;55953;51.650;-0.522;2022-12-07T13:42:47;101127.20;;;5.68
68911;BMP180;55953;51.650;-0.522;2022-12-07T13:45:31;101124.80;;;5.70
68911;BMP180;55953;51.650;-0.522;2022-12-07T13:48:35;101125.20;;;5.70
68911;BMP180;55953;51.650;-0.522;2022-12-07T13:51:22;101123.60;;;5.60
68911;BMP180;55953;51.650;-0.522;2022-12-07T13:54:10;101121.60;;;5.60
68911;BMP180;55953;51.650;-0.522;2022-12-07T13:56:40;101113.60;;;5.70
68911;BMP180;55953;51.650;-0.522;2022-12-07T13:59:16;101110.20;;;5.70
68911;BMP180;55953;51.650;-0.522;2022-12-07T14:01:47;101110.40;;;5.70
68911;BMP180;55953;51.650;-0.522;2022-12-07T14:04:31;101101.60;;;5.70
68911;BMP180;55953;51.650;-0.522;2022-12-07T14:07:18;101100.20;;;5.70
68911;BMP180;55953;51.650;-0.522;2022-12-07T14:10:05;101092.40;;;5.70
68911;BMP180;55953;51.650;-0.522;2022-12-07T14:12:36;101083.40;;;5.70
68911;BMP180;55953;51.650;-0.522;2022-12-07T14:15:05;101086.00;;;5.60
68911;BMP180;55953;51.650;-0.522;2022-12-07T14:17:33;101077.00;;;5.60
68911;BMP180;55953;51.650;-0.522;2022-12-07T14:20:03;101078.20;;;5.60
68911;BMP180;55953;51.650;-0.522;2022-12-07T14:22:37;101081.00;;;5.60
68911;BMP180;55953;51.650;-0.522;2022-12-07T14:25:24;101089.40;;;5.50
68911;BMP180;55953;51.650;-0.522;2022-12-07T14:28:00;101080.40;;;5.50
68911;BMP180;55953;51.650;-0.522;2022-12-07T14:30:33;101074.40;;;5.50
68911;BMP180;55953;51.650;-0.522;2022-12-07T14:33:04;101068.40;;;5.50
68911;BMP180;55953;51.650;-0.522;2022-12-07T14:35:32;101066.60;;;5.38
68911;BMP180;55953;51.650;-0.522;2022-12-07T14:38:00;101060.60;;;5.30
68911;BMP180;55953;51.650;-0.522;2022-12-07T14:40:29;101056.60;;;5.20
68911;BMP180;55953;51.650;-0.522;2022-12-07T14:43:02;101056.00;;;5.10
68911;BMP180;55953;51.650;-0.522;2022-12-07T14:45:32;101050.60;;;5.00
68911;BMP180;55953;51.650;-0.522;2022-12-07T14:48:00;101054.40;;;4.88
68911;BMP180;55953;51.650;-0.522;2022-12-07T14:50:52;101057.40;;;4.80
68911;BMP180;55953;51.650;-0.522;2022-12-07T14:53:48;101052.00;;;4.70
68911;BMP180;55953;51.650;-0.522;2022-12-07T14:56:24;101062.80;;;4.60
68911;BMP180;55953;51.650;-0.522;2022-12-07T14:58:52;101057.60;;;4.60
68911;BMP180;55953;51.650;-0.522;2022-12-07T15:01:20;101055.80;;;4.50
68911;BMP180;55953;51.650;-0.522;2022-12-07T15:03:47;101052.20;;;4.40
68911;BMP180;55953;51.650;-0.522;2022-12-07T15:06:18;101053.00;;;4.40
68911;BMP180;55953;51.650;-0.522;2022-12-07T15:08:46;101053.60;;;4.30
68911;BMP180;55953;51.650;-0.522;2022-12-07T15:11:16;101051.60;;;4.20
68911;BMP180;55953;51.650;-0.522;2022-12-07T15:13:44;101052.20;;;4.14
68911;BMP180;55953;51.650;-0.522;2022-12-07T15:16:31;101047.60;;;4.10
68911;BMP180;55953;51.650;-0.522;2022-12-07T15:19:22;101051.40;;;4.00
68911;BMP180;55953;51.650;-0.522;2022-12-07T15:21:57;101043.80;;;3.98
68911;BMP180;55953;51.650;-0.522;2022-12-07T15:24:26;101042.80;;;3.90
68911;BMP180;55953;51.650;-0.522;2022-12-07T15:26:54;101042.40;;;3.84
68911;BMP180;55953;51.650;-0.522;2022-12-07T15:29:22;101043.00;;;3.80
68911;BMP180;55953;51.650;-0.522;2022-12-07T15:31:51;101044.40;;;3.70
68911;BMP180;55953;51.650;-0.522;2022-12-07T15:34:26;101049.80;;;3.70
68911;BMP180;55953;51.650;-0.522;2022-12-07T15:37:02;101041.40;;;3.60
68911;BMP180;55953;51.650;-0.522;2022-12-07T15:39:30;101042.20;;;3.58
68911;BMP180;55953;51.650;-0.522;2022-12-07T15:41:58;101040.40;;;3.50
68911;BMP180;55953;51.650;-0.522;2022-12-07T15:44:26;101036.40;;;3.46
68911;BMP180;55953;51.650;-0.522;2022-12-07T15:47:12;101037.60;;;3.40
68911;BMP180;55953;51.650;-0.522;2022-12-07T15:49:40;101034.60;;;3.36
68911;BMP180;55953;51.650;-0.522;2022-12-07T15:52:08;101030.20;;;3.30
68911;BMP180;55953;51.650;-0.522;2022-12-07T15:54:36;101028.00;;;3.20
68911;BMP180;55953;51.650;-0.522;2022-12-07T15:57:04;101024.80;;;3.20
68911;BMP180;55953;51.650;-0.522;2022-12-07T15:59:32;101017.60;;;3.10
68911;BMP180;55953;51.650;-0.522;2022-12-07T16:02:00;101021.40;;;3.08
68911;BMP180;55953;51.650;-0.522;2022-12-07T16:04:28;101020.40;;;3.00
68911;BMP180;55953;51.650;-0.522;2022-12-07T16:06:59;101024.00;;;3.00
68911;BMP180;55953;51.650;-0.522;2022-12-07T16:09:27;101022.80;;;3.00
68911;BMP180;55953;51.650;-0.522;2022-12-07T16:11:55;101013.20;;;2.90